This is the latest recevied weather packets stored in our database for station/object IZ1BLA-10. If no packets are shown the sender has not sent any weather packets the latest 10 day(s).
| Time | Temp. | Humidity | Pressure | Rain* | Wind** | Luminosity | Snow |
|---|---|---|---|---|---|---|---|
| 1777918153 | 14.44° C | 76% | 1016.5 hPa | - | - | - | - |
| 1777917553 | 14.44° C | 74% | 1016.6 hPa | - | - | - | - |
| 1777916954 | 16.11° C | 68% | 1015.9 hPa | - | - | - | - |
| 1777916354 | 17.22° C | 61% | 1015.6 hPa | - | - | - | - |
| 1777915753 | 18.33° C | 58% | 1015.3 hPa | - | - | - | - |
| 1777915153 | 18.33° C | 55% | 1015.2 hPa | - | - | - | - |
| 1777914553 | 17.22° C | 56% | 1015.6 hPa | - | - | - | - |
| 1777913953 | 17.78° C | 55% | 1015.5 hPa | - | - | - | - |
| 1777913353 | 17.22° C | 54% | 1015.6 hPa | - | - | - | - |
| 1777912753 | 17.22° C | 53% | 1015.8 hPa | - | - | - | - |
| 1777912154 | 18.33° C | 49% | 1015.3 hPa | - | - | - | - |
| 1777911553 | 18.89° C | 47% | 1015.3 hPa | - | - | - | - |
| 1777910953 | 18.89° C | 46% | 1015.1 hPa | - | - | - | - |
| 1777910353 | 19.44° C | 46% | 1015 hPa | - | - | - | - |
| 1777909754 | 19.44° C | 46% | 1014.9 hPa | - | - | - | - |
| 1777909153 | 18.33° C | 48% | 1015.2 hPa | - | - | - | - |
| 1777908553 | 17.78° C | 48% | 1015.4 hPa | - | - | - | - |
| 1777907954 | 18.33° C | 46% | 1015.2 hPa | - | - | - | - |
| 1777907353 | 19.44° C | 44% | 1015 hPa | - | - | - | - |
| 1777906753 | 18.89° C | 45% | 1015.2 hPa | - | - | - | - |
| 1777906153 | 19.44° C | 44% | 1015.1 hPa | - | - | - | - |
| 1777905553 | 19.44° C | 45% | 1015.1 hPa | - | - | - | - |
| 1777904953 | 17.78° C | 46% | 1015.4 hPa | - | - | - | - |
| 1777904353 | 19.44° C | 45% | 1015.2 hPa | - | - | - | - |
| 1777903753 | 19.44° C | 44% | 1015.2 hPa | - | - | - | - |
* Rain since midnight (hover to see other rain measurements)
** Current wind speed in m/s (hover to see current wind gust speed)